Time;durP1;ratioP1;P1;durP2;ratioP2;P2;SDS_P1;SDS_P2;PMS_P1;PMS_P2;Temp;Humidity;BMP_temperature;BMP_pressure;BME280_temperature;BME280_humidity;BME280_pressure;Samples;Min_cycle;Max_cycle;Signal;HPM_P1;HPM_P2
2023/09/25 00:00:30;;;;;;;5.00;4.20;;;9.30;97.60;;;8.71;100.00;98858.69;5088570;28;20455;-78
2023/09/25 00:03:00;;;;;;;3.50;3.20;;;9.30;98.10;;;8.70;99.44;98851.63;5088462;28;20449;-80
2023/09/25 00:05:29;;;;;;;6.00;3.93;;;9.30;98.00;;;8.61;99.73;98832.00;5092369;28;20471;-79
2023/09/25 00:07:56;;;;;;;4.90;4.40;;;9.20;97.90;;;8.66;99.50;98842.25;5086270;28;20503;-78
2023/09/25 00:10:24;;;;;;;4.47;3.87;;;9.20;97.70;;;8.58;100.00;98826.16;5086475;28;20461;-79
2023/09/25 00:12:52;;;;;;;4.17;3.87;;;9.20;97.80;;;8.60;99.96;98834.91;5082890;28;20515;-78
2023/09/25 00:15:19;;;;;;;4.47;4.07;;;9.20;97.90;;;8.64;99.38;98841.59;5087552;28;20451;-79
2023/09/25 00:17:46;;;;;;;6.07;4.00;;;9.20;98.00;;;8.63;100.00;98839.91;5101609;28;20473;-82
2023/09/25 00:20:19;;;;;;;5.13;4.37;;;9.20;97.90;;;8.62;99.33;98841.75;5108064;28;20437;-83
2023/09/25 00:22:47;;;;;;;6.53;4.10;;;9.20;97.80;;;8.62;99.22;98840.94;5099282;28;20525;-81
2023/09/25 00:25:15;;;;;;;4.50;4.10;;;9.10;97.60;;;8.22;100.00;98809.59;5092228;28;20452;-80
2023/09/25 00:27:42;;;;;;;4.27;3.97;;;9.10;98.60;;;8.63;99.80;98845.31;5085060;28;20528;-80
2023/09/25 00:30:11;;;;;;;4.90;3.97;;;9.10;98.50;;;8.38;99.99;98802.38;5084155;28;20464;-81
2023/09/25 00:32:38;;;;;;;4.77;3.57;;;9.10;99.30;;;8.39;100.00;98812.13;5097589;28;20541;-80
2023/09/25 00:35:09;;;;;;;4.80;4.10;;;9.00;98.60;;;8.44;100.00;98817.84;5100732;28;20464;-82
2023/09/25 00:37:38;;;;;;;5.40;4.90;;;9.00;99.50;;;8.57;100.00;98841.47;5082249;28;20464;-78
2023/09/25 00:40:13;;;;;;;4.30;3.90;;;9.10;99.50;;;8.47;100.00;98835.47;5084987;28;20950;-79
2023/09/25 00:42:41;;;;;;;4.30;4.00;;;9.00;99.10;;;8.42;100.00;98827.09;5077630;28;20476;-79
2023/09/25 00:45:11;;;;;;;4.10;3.80;;;8.90;99.70;;;8.34;99.75;98825.31;5085492;28;20615;-79
2023/09/25 00:47:42;;;;;;;4.73;4.33;;;8.90;99.40;;;8.26;100.00;98838.84;5078244;28;20448;-79
2023/09/25 00:50:11;;;;;;;4.30;3.90;;;8.70;99.10;;;8.34;100.00;98830.72;5083836;28;20945;-79
2023/09/25 00:52:44;;;;;;;4.10;3.70;;;8.80;99.90;;;8.34;100.00;98830.72;5081310;28;20500;-80
2023/09/25 00:55:12;;;;;;;4.77;3.90;;;8.80;99.90;;;8.29;100.00;98819.66;5082003;28;20462;-79
2023/09/25 00:57:41;;;;;;;3.93;3.63;;;8.80;99.90;;;8.14;100.00;98841.97;5084344;28;20477;-82
2023/09/25 01:00:11;;;;;;;4.13;3.73;;;8.70;98.80;;;8.08;100.00;98830.06;5087964;28;20456;-80
2023/09/25 01:02:39;;;;;;;3.97;3.60;;;8.60;99.10;;;8.07;100.00;98831.09;5089671;28;20479;-79
2023/09/25 01:05:09;;;;;;;4.63;4.23;;;8.60;99.90;;;8.10;100.00;98834.44;5090042;28;20468;-79
2023/09/25 01:07:36;;;;;;;4.10;3.80;;;8.60;99.90;;;7.34;100.00;98706.81;5087999;28;20508;-82
2023/09/25 01:10:13;;;;;;;4.50;3.77;;;8.60;99.90;;;8.03;100.00;98831.63;5088052;28;20868;-81
2023/09/25 01:12:40;;;;;;;4.20;3.90;;;8.50;99.90;;;7.96;100.00;98796.50;5080889;28;20475;-80
2023/09/25 01:15:09;;;;;;;4.70;4.30;;;8.60;99.90;;;8.09;100.00;98814.72;5087258;28;20448;-82
2023/09/25 01:17:36;;;;;;;5.17;4.67;;;8.60;99.90;;;8.00;100.00;98807.75;5081530;28;20984;-80
2023/09/25 01:20:12;;;;;;;5.70;4.30;;;8.60;99.90;;;8.05;100.00;98819.66;5082711;28;20469;-80
2023/09/25 01:22:44;;;;;;;4.10;3.80;;;8.50;99.90;;;8.05;100.00;98821.50;5102003;28;20505;-84
2023/09/25 01:25:12;;;;;;;4.10;3.70;;;8.50;99.90;;;8.06;100.00;98824.03;5089834;28;20925;-82
2023/09/25 01:27:42;;;;;;;9.50;4.80;;;8.50;99.90;;;7.75;100.00;98789.09;5082742;28;20478;-81
2023/09/25 01:30:10;;;;;;;4.30;3.90;;;8.50;99.90;;;7.86;100.00;98823.66;5084166;28;20648;-81
2023/09/25 01:32:38;;;;;;;4.70;4.30;;;8.40;99.80;;;7.92;100.00;98833.69;5087628;28;20458;-78
2023/09/25 01:35:11;;;;;;;4.53;4.00;;;8.40;99.90;;;7.84;100.00;98823.00;5084927;28;20459;-80
2023/09/25 01:37:42;;;;;;;4.07;3.77;;;8.30;99.90;;;7.77;100.00;98819.31;5082848;28;20962;-80
2023/09/25 01:40:13;;;;;;;5.63;4.67;;;8.20;99.90;;;7.74;100.00;98819.69;5085006;28;20919;-80
2023/09/25 01:42:41;;;;;;;4.37;3.97;;;8.20;99.90;;;6.94;100.00;98670.06;5083303;28;20529;-81
2023/09/25 01:45:11;;;;;;;4.30;3.90;;;8.20;99.90;;;7.90;100.00;98813.38;5081539;28;20442;-81
2023/09/25 01:47:39;;;;;;;5.43;4.37;;;8.30;99.90;;;7.86;100.00;98818.28;5090306;28;20561;-81
2023/09/25 01:50:10;;;;;;;6.07;4.30;;;8.30;99.90;;;7.90;100.00;98811.50;5103734;28;20461;-83
2023/09/25 01:52:38;;;;;;;4.60;4.20;;;8.30;99.90;;;7.84;100.00;98809.53;5105476;28;20436;-80
2023/09/25 01:55:08;;;;;;;4.93;4.30;;;8.30;99.90;;;7.27;100.00;98740.78;5104273;28;20427;-83
2023/09/25 01:57:35;;;;;;;5.57;4.20;;;8.30;99.90;;;7.83;100.00;98815.09;5091484;28;20464;-82
2023/09/25 02:00:07;;;;;;;5.10;4.47;;;8.30;99.90;;;7.86;100.00;98820.97;5089688;28;20447;-81
2023/09/25 02:02:37;;;;;;;5.63;5.03;;;8.40;99.90;;;7.71;100.00;98802.03;5085732;28;20588;-82
2023/09/25 02:05:08;;;;;;;5.97;4.40;;;8.40;99.90;;;7.82;100.00;98808.03;5085306;28;20443;-82
2023/09/25 02:07:37;;;;;;;5.07;4.67;;;8.30;99.90;;;7.75;100.00;98784.56;5083618;28;20538;-80
2023/09/25 02:10:06;;;;;;;6.23;4.90;;;8.40;99.90;;;7.32;100.00;98715.06;5085019;28;20576;-82
2023/09/25 02:12:34;;;;;;;5.63;5.13;;;8.40;99.70;;;7.60;100.00;98759.44;5086900;28;20449;-81
2023/09/25 02:15:07;;;;;;;4.40;4.00;;;8.40;99.00;;;7.47;100.00;98738.50;5080811;28;20441;-81
2023/09/25 02:17:34;;;;;;;5.37;4.80;;;8.40;98.50;;;7.47;100.00;98743.88;5084342;28;20475;-81
2023/09/25 02:20:13;;;;;;;4.77;4.37;;;8.40;98.50;;;7.71;100.00;98774.31;5077616;28;20720;-81
2023/09/25 02:22:41;;;;;;;5.00;4.60;;;8.40;98.70;;;7.83;100.00;98790.88;5086068;28;20507;-81
2023/09/25 02:25:10;;;;;;;5.07;4.60;;;8.40;98.40;;;7.81;100.00;98785.69;5084987;28;20471;-82
2023/09/25 02:27:39;;;;;;;4.70;4.30;;;8.40;98.70;;;7.70;100.00;98765.41;5085379;28;20448;-81
2023/09/25 02:30:11;;;;;;;5.40;5.00;;;8.30;98.30;;;7.74;100.00;98785.56;5087828;28;20833;-81
2023/09/25 02:32:38;;;;;;;5.10;4.70;;;8.30;98.10;;;7.67;100.00;98771.16;5085836;28;20446;-82
2023/09/25 02:35:07;;;;;;;6.47;4.57;;;8.30;99.50;;;7.91;99.82;98788.16;5084226;28;20459;-80
2023/09/25 02:37:35;;;;;;;5.17;4.67;;;8.40;99.70;;;7.87;100.00;98795.72;5086175;28;20475;-80
2023/09/25 02:40:04;;;;;;;7.27;4.77;;;8.40;98.70;;;7.52;100.00;98746.88;5085668;28;20456;-81
2023/09/25 02:42:33;;;;;;;5.57;5.07;;;8.40;99.00;;;7.80;100.00;98787.53;5084513;28;20483;-82
2023/09/25 02:45:01;;;;;;;5.53;4.90;;;8.40;99.00;;;7.87;100.00;98786.81;5084883;28;20446;-81
2023/09/25 02:47:28;;;;;;;4.90;4.50;;;8.40;99.00;;;7.84;100.00;98779.94;5087558;28;20460;-83
2023/09/25 02:49:56;;;;;;;5.50;5.00;;;8.30;99.50;;;7.58;100.00;98740.78;5085460;28;20454;-80
2023/09/25 02:52:23;;;;;;;5.40;5.00;;;8.40;99.40;;;6.98;100.00;98667.06;5083608;28;20456;-82
2023/09/25 02:54:51;;;;;;;6.67;4.83;;;8.40;99.60;;;7.68;100.00;98769.31;5084543;28;21300;-82
2023/09/25 02:57:18;;;;;;;5.20;4.70;;;8.30;99.40;;;7.75;100.00;98781.00;5088000;28;20519;-81
2023/09/25 02:59:47;;;;;;;5.40;5.00;;;8.40;99.40;;;7.40;100.00;98737.53;5088475;28;21129;-83
2023/09/25 03:02:14;;;;;;;5.40;5.00;;;8.40;99.00;;;7.65;100.00;98757.03;5088375;28;20446;-83
2023/09/25 03:04:42;;;;;;;5.07;4.53;;;8.40;99.00;;;7.78;100.00;98783.34;5088953;28;20436;-81
2023/09/25 03:07:10;;;;;;;5.73;5.23;;;8.40;99.10;;;7.74;100.00;98776.66;5087245;28;21184;-81
2023/09/25 03:09:37;;;;;;;5.70;5.20;;;8.40;98.20;;;7.71;100.00;98777.84;5067710;28;20447;-78
2023/09/25 03:12:05;;;;;;;5.30;4.90;;;8.40;98.40;;;7.71;100.00;98766.25;5087117;28;20455;-80
2023/09/25 03:14:33;;;;;;;6.80;5.60;;;8.40;97.80;;;7.80;100.00;98765.16;5102109;28;20447;-78
2023/09/25 03:17:02;;;;;;;5.40;4.90;;;8.40;97.60;;;7.65;99.99;98746.28;5087874;28;20458;-78
2023/09/25 03:19:35;;;;;;;5.80;5.20;;;8.40;97.50;;;7.76;99.64;98764.72;5084286;28;20442;-79
2023/09/25 03:22:02;;;;;;;4.73;4.33;;;8.40;97.40;;;7.61;100.00;98747.66;5069660;28;20454;-80
2023/09/25 03:24:30;;;;;;;6.50;4.80;;;8.40;97.50;;;6.76;100.00;98619.31;5084006;28;21023;-80
2023/09/25 03:26:57;;;;;;;6.53;5.70;;;8.30;97.60;;;7.75;100.00;98757.66;5084296;28;20457;-80
2023/09/25 03:29:24;;;;;;;6.63;5.40;;;8.30;98.10;;;7.18;100.00;98686.25;5085436;28;21265;-83
2023/09/25 03:31:51;;;;;;;5.23;4.83;;;8.30;98.40;;;7.70;100.00;98753.81;5080367;28;20500;-82
2023/09/25 03:34:20;;;;;;;5.13;4.73;;;8.30;98.40;;;7.22;100.00;98690.28;5082581;28;20769;-81
2023/09/25 03:36:48;;;;;;;7.17;5.00;;;8.30;98.10;;;7.66;100.00;98758.72;5087769;28;20452;-81
2023/09/25 03:39:17;;;;;;;6.27;5.67;;;8.30;98.20;;;7.43;100.00;98737.19;5083733;28;20477;-82
2023/09/25 03:41:44;;;;;;;5.60;5.03;;;8.30;99.30;;;7.68;100.00;98769.31;5085777;28;20543;-80
2023/09/25 03:44:11;;;;;;;7.30;5.77;;;8.30;99.30;;;7.51;100.00;98750.59;5087022;28;20497;-81
2023/09/25 03:46:39;;;;;;;7.10;5.30;;;8.20;99.00;;;7.47;100.00;98760.84;5085028;28;20460;-80
2023/09/25 03:49:06;;;;;;;7.00;5.70;;;8.10;98.70;;;7.40;100.00;98757.19;5085907;28;20458;-82
2023/09/25 03:51:35;;;;;;;5.47;5.00;;;8.10;99.10;;;7.28;100.00;98740.63;5087349;28;20521;-80
2023/09/25 03:54:03;;;;;;;8.07;5.47;;;8.10;98.50;;;7.42;100.00;98757.84;5084730;28;20461;-81
2023/09/25 03:56:31;;;;;;;7.03;5.73;;;8.00;99.10;;;6.78;100.00;98654.03;5083540;28;20955;-82
2023/09/25 03:58:58;;;;;;;6.43;5.83;;;8.00;98.80;;;7.45;100.00;98764.72;5084932;28;20553;-79
2023/09/25 04:01:25;;;;;;;5.97;5.47;;;8.00;99.00;;;7.43;100.00;98764.06;5083906;28;20455;-78
2023/09/25 04:03:53;;;;;;;6.27;5.70;;;8.00;99.10;;;6.78;100.00;98673.69;5092926;28;20456;-79
2023/09/25 04:06:20;;;;;;;5.67;5.27;;;8.00;99.00;;;7.39;100.00;98758.19;5089258;28;20456;-78
2023/09/25 04:08:48;;;;;;;6.80;6.10;;;8.00;99.90;;;7.45;100.00;98767.41;5092348;28;20906;-78
2023/09/25 04:11:16;;;;;;;6.37;5.50;;;8.00;99.90;;;7.43;100.00;98754.16;5091167;28;21010;-83
2023/09/25 04:13:43;;;;;;;6.03;5.17;;;8.00;99.60;;;7.41;100.00;98755.34;5091565;28;20449;-79
2023/09/25 04:16:13;;;;;;;8.00;6.00;;;8.00;99.30;;;7.45;100.00;98756.66;5093890;28;20464;-80
2023/09/25 04:18:42;;;;;;;6.63;5.93;;;8.00;99.30;;;7.39;100.00;98760.06;5089247;28;20461;-80
2023/09/25 04:21:11;;;;;;;6.20;5.60;;;8.00;99.00;;;7.34;100.00;98755.22;5086027;28;20523;-80
2023/09/25 04:23:38;;;;;;;6.53;5.83;;;8.00;99.20;;;7.30;100.00;98752.03;5090319;28;20512;-81
2023/09/25 04:26:07;;;;;;;6.30;5.47;;;8.00;99.00;;;7.23;100.00;98732.25;5106063;28;20947;-80
2023/09/25 04:28:36;;;;;;;7.10;6.50;;;8.00;99.50;;;7.34;100.00;98756.03;5080578;28;20536;-84
2023/09/25 04:31:05;;;;;;;7.20;6.50;;;8.00;99.40;;;6.98;100.00;98702.81;5077569;28;20484;-82
2023/09/25 04:33:33;;;;;;;7.13;6.43;;;8.00;99.30;;;6.92;100.00;98687.41;5097801;28;20458;-81
2023/09/25 04:36:01;;;;;;;9.43;6.40;;;8.00;99.80;;;7.35;100.00;98757.72;5104237;28;20436;-80
2023/09/25 04:38:30;;;;;;;6.03;5.43;;;8.00;99.90;;;7.36;100.00;98756.72;5107194;28;20556;-85
2023/09/25 04:40:57;;;;;;;6.80;5.90;;;8.00;99.80;;;7.12;100.00;98713.84;5114742;28;20470;-85
2023/09/25 04:43:26;;;;;;;6.50;5.90;;;7.90;99.90;;;7.30;100.00;98752.03;5096355;28;20449;-80
2023/09/25 04:45:55;;;;;;;6.70;6.07;;;7.90;99.80;;;7.23;100.00;98732.25;5085125;28;20443;-80
2023/09/25 04:48:22;;;;;;;11.03;6.70;;;7.90;99.80;;;6.73;100.00;98657.25;5085692;28;20452;-79
2023/09/25 04:50:49;;;;;;;7.20;6.00;;;7.90;99.90;;;7.30;100.00;98760.09;5082185;28;20451;-83
2023/09/25 04:53:19;;;;;;;7.70;6.50;;;7.90;99.90;;;7.22;100.00;98746.72;5084986;28;20941;-81
2023/09/25 04:55:47;;;;;;;7.57;6.87;;;7.90;99.50;;;7.22;100.00;98747.53;5083237;28;20546;-79
2023/09/25 04:58:14;;;;;;;8.00;7.20;;;7.80;99.90;;;6.91;100.00;98693.78;5081534;28;20494;-81
2023/09/25 05:00:44;;;;;;;7.10;6.40;;;7.80;99.90;;;7.28;100.00;98751.38;5084253;28;20487;-81
2023/09/25 05:03:11;;;;;;;9.40;6.40;;;7.90;99.90;;;6.62;100.00;98652.28;5078476;28;20460;-75
2023/09/25 05:05:39;;;;;;;8.60;7.30;;;7.90;99.90;;;7.27;100.00;98755.06;5079605;28;20460;-80
2023/09/25 05:08:06;;;;;;;7.80;7.00;;;7.90;99.90;;;7.19;100.00;98733.59;5078366;28;20459;-81
2023/09/25 05:10:35;;;;;;;7.77;7.07;;;7.90;99.90;;;7.14;100.00;98722.56;5079285;28;20564;-80
2023/09/25 05:13:02;;;;;;;8.43;7.63;;;8.00;99.90;;;7.28;100.00;98734.38;5081899;28;20560;-81
2023/09/25 05:15:29;;;;;;;10.20;7.53;;;8.00;99.90;;;7.25;100.00;98746.34;5082642;28;20466;-78
2023/09/25 05:17:58;;;;;;;8.40;7.30;;;8.00;99.90;;;7.46;100.00;98763.72;5084210;28;20474;-82
2023/09/25 05:20:26;;;;;;;8.20;7.50;;;8.00;99.90;;;7.37;100.00;98758.38;5080013;28;20525;-80
2023/09/25 05:22:55;;;;;;;6.83;6.23;;;8.00;99.90;;;7.42;100.00;98757.00;5081160;28;20455;-78
2023/09/25 05:25:23;;;;;;;7.20;6.60;;;8.00;99.90;;;7.47;100.00;98760.84;5079686;28;20465;-77
2023/09/25 05:27:55;;;;;;;10.57;7.50;;;8.00;99.90;;;7.42;100.00;98755.16;5078315;28;20461;-77
2023/09/25 05:30:22;;;;;;;8.50;7.60;;;8.10;99.90;;;7.45;100.00;98760.19;5078922;28;20953;-79
2023/09/25 05:32:51;;;;;;;8.53;7.73;;;8.10;99.90;;;7.57;100.00;98771.38;5095600;28;20449;-78
2023/09/25 05:35:20;;;;;;;10.03;7.23;;;8.10;99.90;;;7.62;100.00;98765.47;5077463;28;20543;-79
2023/09/25 05:37:48;;;;;;;8.10;7.30;;;8.20;99.70;;;7.60;100.00;98765.63;5081022;28;20517;-80
2023/09/25 05:40:16;;;;;;;8.13;7.40;;;8.20;99.50;;;7.72;100.00;98778.69;5081931;28;20457;-79
2023/09/25 05:42:45;;;;;;;7.57;6.77;;;8.20;99.00;;;7.71;100.00;98777.00;5085870;28;20558;-80
2023/09/25 05:45:15;;;;;;;6.90;6.20;;;8.30;98.90;;;7.69;100.00;98765.59;5086472;28;20451;-81
2023/09/25 05:47:43;;;;;;;8.27;7.47;;;8.30;98.40;;;7.59;99.83;98758.59;5082243;28;20461;-77
2023/09/25 05:50:11;;;;;;;9.83;6.97;;;8.40;97.80;;;7.84;100.00;98779.94;5085736;28;20511;-81
2023/09/25 05:52:41;;;;;;;8.23;7.43;;;8.40;97.60;;;7.94;99.51;98782.41;5080902;28;21331;-81
2023/09/25 05:55:10;;;;;;;7.27;6.57;;;8.50;97.70;;;7.96;99.16;98782.19;5083159;28;20475;-83
2023/09/25 05:57:37;;;;;;;9.37;7.10;;;8.50;97.40;;;8.11;99.29;98783.09;5082504;28;21309;-79
2023/09/25 06:00:11;;;;;;;8.13;7.20;;;8.50;98.30;;;8.38;99.04;98802.38;5082527;28;20539;-75
2023/09/25 06:02:38;;;;;;;9.23;6.60;;;8.80;98.70;;;8.33;98.53;98797.53;5082956;28;20791;-79
2023/09/25 06:05:06;;;;;;;7.83;6.80;;;8.80;97.70;;;8.30;97.38;98791.72;5079994;28;20437;-80
2023/09/25 06:07:35;;;;;;;9.10;6.67;;;8.80;96.80;;;8.29;97.19;98790.03;5082459;28;20846;-80
2023/09/25 06:10:05;;;;;;;6.73;6.13;;;8.80;96.10;;;8.28;96.74;98762.25;5082411;28;20450;-80
2023/09/25 06:12:32;;;;;;;7.67;6.53;;;8.90;95.80;;;8.58;96.19;98788.47;5080922;28;20456;-76
2023/09/25 06:14:59;;;;;;;7.40;6.80;;;8.90;95.70;;;8.60;94.81;98789.09;5086788;28;21617;-81
2023/09/25 06:17:27;;;;;;;11.13;6.43;;;9.00;94.70;;;8.49;95.60;98784.94;5084954;28;20477;-80
2023/09/25 06:19:54;;;;;;;7.53;6.43;;;9.00;94.20;;;8.55;95.01;98795.03;5083758;28;20578;-79
2023/09/25 06:22:22;;;;;;;7.07;6.40;;;9.10;94.30;;;8.64;94.42;98798.47;5086589;28;20477;-75
2023/09/25 06:24:50;;;;;;;7.77;6.97;;;9.20;93.80;;;8.68;94.51;98794.41;5082389;28;20537;-82
2023/09/25 06:27:19;;;;;;;6.40;5.90;;;9.30;93.70;;;8.72;93.90;98786.78;5085792;28;20457;-80
2023/09/25 06:29:46;;;;;;;12.00;7.50;;;9.30;93.50;;;8.85;94.93;98789.69;5076870;28;20460;-82
2023/09/25 06:32:13;;;;;;;6.80;6.20;;;9.40;93.90;;;9.01;93.15;98798.59;5081978;28;20483;-80
2023/09/25 06:34:40;;;;;;;6.80;6.20;;;9.50;93.00;;;8.96;93.79;98791.06;5079339;28;20805;-78
2023/09/25 06:37:08;;;;;;;7.03;6.43;;;9.60;92.80;;;9.03;93.24;98792.00;5079836;28;20941;-78
2023/09/25 06:39:35;;;;;;;6.93;6.10;;;9.60;92.70;;;9.18;91.53;98788.47;5085184;28;20488;-78
2023/09/25 06:42:03;;;;;;;6.57;5.90;;;9.70;92.50;;;9.28;91.49;98804.34;5084553;28;20456;-79
2023/09/25 06:44:31;;;;;;;6.80;6.10;;;9.80;92.20;;;9.49;90.83;98812.50;5084225;28;20461;-77
2023/09/25 06:46:59;;;;;;;6.30;5.70;;;9.90;92.10;;;9.41;90.97;98787.50;5099961;28;20466;-78
2023/09/25 06:49:26;;;;;;;8.40;6.60;;;10.00;91.20;;;9.63;90.98;98802.72;5073880;28;20451;-74
2023/09/25 06:51:53;;;;;;;7.53;6.83;;;10.20;91.30;;;9.84;90.32;98801.06;5091215;28;20964;-77
2023/09/25 06:54:20;;;;;;;6.70;5.40;;;10.30;91.20;;;10.00;88.59;98796.44;5084874;28;20446;-80
2023/09/25 06:56:49;;;;;;;6.43;5.93;;;10.40;91.00;;;10.04;87.99;98795.88;5095616;28;20517;-75
2023/09/25 06:59:16;;;;;;;6.43;5.50;;;10.50;90.30;;;10.01;87.50;98781.91;5105303;28;20489;-74
2023/09/25 07:01:45;;;;;;;7.03;6.13;;;10.60;90.00;;;10.08;87.45;98788.19;5110462;28;20447;-78
2023/09/25 07:04:13;;;;;;;8.13;5.80;;;10.60;90.00;;;10.19;87.04;98797.66;5088638;28;20566;-83
2023/09/25 07:06:40;;;;;;;6.30;5.70;;;10.70;89.70;;;10.26;87.39;98798.53;5078426;28;20453;-79
2023/09/25 07:09:09;;;;;;;6.10;5.60;;;10.80;89.60;;;10.37;86.77;98793.66;5080294;28;20962;-76
2023/09/25 07:11:36;;;;;;;7.20;5.80;;;10.90;89.50;;;10.61;85.88;98793.25;5075406;28;20448;-76
2023/09/25 07:14:03;;;;;;;6.60;6.00;;;11.00;89.40;;;10.66;84.64;98784.53;5078769;28;20446;-76
2023/09/25 07:16:31;;;;;;;6.53;5.93;;;11.20;88.90;;;10.78;84.57;98792.97;5079730;28;20450;-75
2023/09/25 07:19:00;;;;;;;6.30;5.70;;;11.30;88.20;;;10.84;84.22;98796.72;5079383;28;20887;-78
2023/09/25 07:21:27;;;;;;;6.20;5.57;;;11.30;87.80;;;10.56;83.66;98735.44;5077707;28;20508;-76
2023/09/25 07:23:54;;;;;;;6.00;5.50;;;11.40;87.70;;;11.04;83.19;98794.97;5079108;28;20444;-77
2023/09/25 07:26:21;;;;;;;5.80;5.30;;;11.60;87.60;;;11.23;82.21;98792.56;5085513;28;20459;-76
2023/09/25 07:28:49;;;;;;;5.53;5.03;;;11.70;87.10;;;11.57;81.99;98784.59;5079314;28;20817;-77
2023/09/25 07:31:20;;;;;;;5.60;5.17;;;11.80;87.40;;;11.60;81.21;98785.03;5076901;28;20466;-74
2023/09/25 07:33:47;;;;;;;7.53;5.80;;;12.00;86.70;;;11.80;81.12;98789.66;5077669;28;20450;-76
2023/09/25 07:36:20;;;;;;;5.43;4.93;;;12.20;86.80;;;11.89;79.92;98780.28;5085937;28;20483;-77
2023/09/25 07:38:47;;;;;;;5.20;4.70;;;12.30;86.30;;;11.76;78.82;98718.03;5078955;28;20485;-74
2023/09/25 07:41:14;;;;;;;6.00;5.50;;;12.50;85.50;;;12.30;78.69;98767.69;5081799;28;20449;-75
2023/09/25 07:43:42;;;;;;;4.90;4.40;;;12.70;85.50;;;12.36;78.27;98768.72;5093851;28;20496;-75
2023/09/25 07:46:10;;;;;;;5.93;4.50;;;12.80;85.50;;;12.38;78.24;98761.22;5091455;28;20538;-75
2023/09/25 07:48:38;;;;;;;5.93;5.43;;;12.80;85.30;;;12.38;78.23;98758.50;5084693;28;20449;-75
2023/09/25 07:51:07;;;;;;;5.73;5.23;;;12.90;85.10;;;12.43;78.90;98768.69;5083390;28;20454;-76
2023/09/25 07:53:39;;;;;;;7.37;5.50;;;12.90;85.10;;;12.26;77.44;98700.56;5086174;28;20807;-74
2023/09/25 07:56:06;;;;;;;6.20;4.80;;;13.00;85.00;;;12.88;77.11;98758.00;5085517;28;20603;-75
2023/09/25 07:58:38;;;;;;;5.23;4.73;;;13.20;84.80;;;12.94;76.27;98761.75;5076267;28;20460;-76
2023/09/25 08:01:08;;;;;;;4.90;4.40;;;13.30;84.40;;;12.99;75.84;98761.97;5083355;28;20988;-78
2023/09/25 08:03:38;;;;;;;6.03;4.83;;;13.40;84.20;;;12.97;75.98;98761.34;5078595;28;20461;-76
2023/09/25 08:06:06;;;;;;;4.57;3.93;;;13.40;84.00;;;12.73;76.19;98706.75;5082938;28;20462;-75
2023/09/25 08:08:35;;;;;;;6.57;4.57;;;13.50;83.90;;;12.95;75.97;98755.28;5076488;28;20914;-79
2023/09/25 08:11:03;;;;;;;7.93;5.00;;;13.50;83.40;;;13.15;75.07;98762.53;5083185;28;20458;-74
2023/09/25 08:13:31;;;;;;;4.80;4.33;;;13.60;83.50;;;13.06;75.52;98755.66;5097049;28;21188;-76
2023/09/25 08:16:05;;;;;;;7.57;4.07;;;13.60;83.30;;;13.24;75.27;98761.22;5084792;28;20592;-76
2023/09/25 08:18:32;;;;;;;6.43;4.60;;;13.70;83.40;;;13.56;74.20;98755.88;5089481;28;20448;-74
2023/09/25 08:20:59;;;;;;;8.90;4.63;;;13.90;83.40;;;13.78;72.88;98758.28;5079503;28;20483;-73
2023/09/25 08:23:26;;;;;;;5.13;3.80;;;14.10;82.80;;;14.01;71.98;98775.91;5084033;28;20461;-73
2023/09/25 08:25:55;;;;;;;7.67;3.93;;;14.30;82.50;;;14.30;70.51;98762.72;5082054;28;20466;-74
2023/09/25 08:28:23;;;;;;;6.90;3.97;;;14.50;81.80;;;14.24;70.27;98763.63;5080302;28;20446;-74
2023/09/25 08:30:51;;;;;;;6.20;3.90;;;14.60;81.30;;;14.20;69.87;98751.53;5078055;28;20454;-75
2023/09/25 08:33:19;;;;;;;4.50;3.77;;;14.70;80.90;;;14.47;69.44;98765.72;5092550;28;20967;-73
2023/09/25 08:35:46;;;;;;;6.23;3.93;;;14.80;80.80;;;14.55;69.47;98770.88;5079821;28;20539;-73
2023/09/25 08:38:13;;;;;;;8.70;4.07;;;14.90;80.70;;;14.28;69.47;98719.47;5079281;28;21201;-72
2023/09/25 08:40:48;;;;;;;6.00;3.63;;;14.90;80.50;;;14.55;69.18;98765.44;5074976;28;20459;-74
2023/09/25 08:43:18;;;;;;;5.10;3.47;;;15.00;80.30;;;14.75;68.14;98761.75;5076685;28;20866;-74
2023/09/25 08:45:46;;;;;;;5.30;3.40;;;15.10;79.90;;;14.94;67.54;98756.31;5087247;28;20524;-74
2023/09/25 08:48:16;;;;;;;5.57;3.47;;;15.30;79.70;;;14.97;67.68;98753.13;5082866;28;20534;-75
2023/09/25 08:50:46;;;;;;;6.60;3.70;;;15.40;79.60;;;15.16;68.02;98753.97;5095730;28;20514;-72
2023/09/25 08:53:13;;;;;;;3.40;3.10;;;15.50;79.90;;;15.30;67.39;98749.19;5094382;28;21070;-75
2023/09/25 08:55:42;;;;;;;4.83;3.87;;;15.60;79.50;;;15.33;66.69;98737.03;5082459;28;20443;-70
2023/09/25 08:58:09;;;;;;;5.93;3.73;;;15.70;79.20;;;15.38;66.10;98740.72;5080557;28;20833;-71
2023/09/25 09:00:40;;;;;;;6.40;3.53;;;15.80;78.60;;;15.43;65.98;98743.56;5075076;28;20479;-70
2023/09/25 09:03:07;;;;;;;3.57;3.23;;;15.80;78.40;;;15.58;64.78;98737.75;5079867;28;21235;-70
2023/09/25 09:05:34;;;;;;;2.87;2.53;;;15.90;77.50;;;15.86;61.68;98736.31;5080929;28;20444;-70
2023/09/25 09:08:05;;;;;;;3.23;2.10;;;16.20;75.70;;;15.99;59.41;98739.88;5082260;28;20812;-76
2023/09/25 09:10:33;;;;;;;2.33;2.23;;;16.30;73.60;;;16.10;59.14;98730.91;5082349;28;20533;-76
2023/09/25 09:13:01;;;;;;;5.80;2.47;;;16.50;72.90;;;16.21;57.81;98731.19;5081166;28;20763;-75
2023/09/25 09:15:31;;;;;;;2.63;2.30;;;16.60;71.90;;;16.33;58.23;98721.13;5113837;28;20497;-75
2023/09/25 09:18:00;;;;;;;1.90;1.80;;;16.60;72.10;;;16.50;57.96;98723.16;5100004;28;20496;-75
2023/09/25 09:20:36;;;;;;;2.40;2.20;;;16.70;71.80;;;16.41;57.47;98722.66;5095741;28;20533;-75
2023/09/25 09:23:05;;;;;;;2.40;2.20;;;16.80;71.10;;;16.60;57.26;98717.91;5087122;28;20455;-76
2023/09/25 09:25:33;;;;;;;3.27;2.97;;;16.90;70.90;;;16.62;57.13;98715.78;5090635;28;20471;-73
2023/09/25 09:28:02;;;;;;;2.30;2.10;;;17.00;70.60;;;16.64;56.15;98702.75;5087597;28;20465;-75
2023/09/25 09:30:29;;;;;;;4.90;2.43;;;17.00;69.80;;;16.83;56.20;98711.63;5087126;28;20448;-73
2023/09/25 09:32:59;;;;;;;3.00;2.13;;;17.10;69.80;;;16.99;55.35;98707.34;5085620;28;20459;-75
2023/09/25 09:35:26;;;;;;;2.33;1.93;;;17.30;69.20;;;17.11;55.14;98710.03;5090207;28;20465;-75
2023/09/25 09:37:54;;;;;;;3.33;2.03;;;17.30;68.90;;;17.22;55.15;98707.53;5083886;28;20451;-75
2023/09/25 09:40:24;;;;;;;2.00;1.63;;;17.40;68.80;;;17.07;55.06;98688.94;5083049;28;20495;-75
2023/09/25 09:42:53;;;;;;;2.97;1.97;;;17.50;68.40;;;17.25;55.04;98701.56;5084623;28;21009;-73
2023/09/25 09:45:21;;;;;;;2.70;2.00;;;17.50;68.50;;;17.27;55.10;98696.69;5085906;28;21295;-76
2023/09/25 09:47:50;;;;;;;2.63;1.90;;;17.60;68.50;;;17.22;55.43;98691.13;5081564;28;21358;-73
2023/09/25 09:50:22;;;;;;;3.40;2.20;;;17.60;68.30;;;17.35;55.19;98692.75;5078217;28;20446;-74
2023/09/25 09:52:50;;;;;;;2.40;2.00;;;17.70;68.10;;;17.58;54.20;98697.28;5075494;28;20456;-73
2023/09/25 09:55:19;;;;;;;3.40;2.00;;;17.80;67.90;;;17.12;54.29;98632.53;5086311;28;20447;-73
2023/09/25 09:57:47;;;;;;;2.10;1.90;;;17.90;67.50;;;17.72;53.20;98689.63;5083614;28;20456;-74
2023/09/25 10:00:15;;;;;;;1.93;1.80;;;18.00;67.00;;;17.54;53.53;98688.75;5085700;28;20560;-74
2023/09/25 10:02:45;;;;;;;2.83;1.70;;;17.90;66.60;;;17.46;53.63;98700.06;5082817;28;20447;-73
2023/09/25 10:05:14;;;;;;;1.73;1.63;;;17.90;66.50;;;17.33;53.13;98645.75;5090569;28;20553;-74
2023/09/25 10:08:10;;;;;;;1.67;1.57;;;17.90;65.90;;;17.84;52.45;98693.13;5087057;28;20456;-74
2023/09/25 10:10:39;;;;;;;4.40;1.60;;;18.10;65.90;;;17.88;51.80;98681.69;5080936;28;20461;-74
2023/09/25 10:13:15;;;;;;;2.50;1.90;;;18.20;65.30;;;17.90;52.15;98679.53;5087186;28;20539;-75
2023/09/25 10:15:53;;;;;;;2.03;1.80;;;18.30;65.30;;;17.98;51.90;98687.34;5088197;28;20794;-75
2023/09/25 10:18:21;;;;;;;1.80;1.70;;;18.30;65.00;;;18.26;51.87;98691.06;5084333;28;20476;-74
2023/09/25 10:20:48;;;;;;;2.80;1.77;;;18.50;65.30;;;18.16;51.31;98689.00;5078965;28;20473;-75
2023/09/25 10:23:22;;;;;;;2.27;1.80;;;18.50;64.40;;;18.24;50.97;98679.56;5083959;28;20460;-74
2023/09/25 10:25:53;;;;;;;1.67;1.57;;;18.60;64.50;;;18.40;50.59;98686.09;5085647;28;21057;-74
2023/09/25 10:28:27;;;;;;;1.90;1.43;;;18.70;64.00;;;18.50;50.06;98693.63;5085652;28;20449;-75
2023/09/25 10:30:57;;;;;;;1.80;1.67;;;18.80;63.60;;;18.59;50.10;98688.56;5077775;28;20450;-75